South Reno (Wolf Run), Nevada Weather observations

Data are for observation ending at time listed.
 Day   Time    Ave.   Ave.  Ave.  Vector   Max.   Stn.    Total    Solar   Ave.  
  of    of     Air    Rel.  Wind   Wind    Wind   Baro.  Precip.   Rad.    Soil  
Year   Day     Temp.  Hum.  Speed  Dir.    Gust   Pres.                    Temp. 
2015   (PST)    F      %     mph   deg.    mph     mb.     in.     W/m2     F   
------------------------------------------------------------------------------
 144   17:20   67.8    36    6.3   350     12.4  99999.0    0.00      75    65.9
 144   17:30   67.3    38    6.4   328     12.4  99999.0    0.00      51    65.9
 144   17:40   66.6    40    4.1   304      9.7  99999.0    0.00      21    65.9
 144   17:50   65.1    44    4.7   262     14.7  99999.0    0.00      30    65.9
 144   18:00   63.6    48    8.3   260     24.6  99999.0    0.00      46    65.9
 144   18:10   62.6    48    7.6   260     18.1  99999.0    0.00      55    65.9
 144   18:20   62.4    46    8.0   256     18.9  99999.0    0.00      43    65.9
 144   18:30   62.4    47    4.3   254     11.2  99999.0    0.00      32    65.9
 144   18:40   62.5    47    1.9   233      5.2  99999.0    0.00      31    65.8
 144   18:50   62.5    48    5.1    33     11.8  99999.0    0.00      34    65.8
 144   19:00   61.8    47    9.6   316     21.8  99999.0    0.00      35    65.7
 144   19:10   60.5    48   13.6   309     24.5  99999.0    0.00       9    65.6
 144   19:20   61.6    40    6.9   318     15.5  99999.0    0.00       3    65.6
 144   19:30   62.7    36    8.7   241     24.4  99999.0    0.00       1    65.5
 144   19:40   63.6    33    4.1   268     10.5  99999.0    0.00       0    65.4
 144   19:50   63.3    38    4.0    57      8.2  99999.0    0.00       0    65.4
 144   20:00   61.4    46    2.7     9      5.6  99999.0    0.00       0    65.3
 144   20:10   60.7    47    1.5    11      3.6  99999.0    0.00       0    65.2
 144   20:20   60.7    45    1.0   353      2.9  99999.0    0.00       0    65.1
 144   20:30   59.6    51    0.0     0      0.0  99999.0    0.00       0    65.0
 144   20:40   58.4    56    3.2    89      5.8  99999.0    0.00       0    65.0
 144   20:50   58.2    57    2.7   126      4.7  99999.0    0.00       0    64.9
 144   21:00   57.4    59    3.1   202      5.8  99999.0    0.00       0    64.8
 144   21:10   55.9    63    3.2   200      5.2  99999.0    0.00       0    64.7
 144   21:20   56.8    61    3.2   200      5.7  99999.0    0.00       0    64.6
 144   21:30   56.6    63    4.4   208      6.1  99999.0    0.00       0    64.6
 144   21:40   56.2    64    5.6   215      7.2  99999.0    0.00       0    64.5
 144   21:50   56.8    62    5.2   215      6.3  99999.0    0.00       0    64.4
 144   22:00   57.3    62    5.5   212      8.3  99999.0    0.00       0    64.3
 144   22:10   57.4    61    5.2   207      7.8  99999.0    0.00       0    64.2
 144   22:20   57.1    60    4.8   205      7.0  99999.0    0.00       0    64.1
 144   22:30   57.2    58    3.4   209      5.7  99999.0    0.00       0    64.0
 144   22:40   56.9    60    2.5   175      5.4  99999.0    0.00       0    64.0
 144   22:50   57.1    63    2.9   165      5.1  99999.0    0.00       0    63.9
 144   23:00   57.3    64    3.1   132      5.3  99999.0    0.00       0    63.8
 144   23:10   57.3    63    2.4   113      4.2  99999.0    0.00       0    63.7
 144   23:20   56.9    65    1.9   184      3.8  99999.0    0.00       0    63.6
 144   23:30   56.0    68    3.6   217      5.1  99999.0    0.00       0    63.6
 144   23:40   56.2    67    2.5   208      4.5  99999.0    0.00       0    63.5
 144   23:50   56.5    65    0.3   197      2.8  99999.0    0.00       0    63.4
 145    0:00   55.0    69    2.2   220      4.0  99999.0    0.00       0    63.3
 145    0:10   53.5    72    3.6   214      5.4  99999.0    0.00       0    63.3
 145    0:20   53.7    70    1.3   239      2.7  99999.0    0.00       0    63.2
 145    0:30   52.5    74    2.7   220      4.9  99999.0    0.00       0    63.1
 145    0:40   51.6    76    3.3   233      5.1  99999.0    0.00       0    63.0
 145    0:50   51.2    76    3.3   228      4.7  99999.0    0.00       0    63.0
 145    1:00   51.9    74    2.3   242      5.0  99999.0    0.00       0    62.9
 145    1:10   52.2    73    0.9   246      3.0  99999.0    0.00       0    62.9
 145    1:20   52.4    72    2.3   245      5.4  99999.0    0.00       0    62.8
 145    1:30   52.3    72    1.8   236      4.3  99999.0    0.00       0    62.7
 145    1:40   52.4    70    4.1   238      5.8  99999.0    0.00       0    62.6
 145    1:50   52.7    68    3.1   238      4.7  99999.0    0.00       0    62.5
 145    2:00   52.7    68    2.4   233      3.5  99999.0    0.00       0    62.5
 145    2:10   53.3    66    1.1   239      4.1  99999.0    0.00       0    62.4
 145    2:20   52.9    68    3.1   227      4.2  99999.0    0.00       0    62.3
 145    2:30   52.1    72    2.7   235      3.7  99999.0    0.00       0    62.3
 145    2:40   51.3    74    3.1   236      4.6  99999.0    0.00       0    62.2
 145    2:50   50.7    74    2.7   232      4.5  99999.0    0.00       0    62.1
 145    3:00   50.0    75    2.3   235      3.9  99999.0    0.00       0    62.1
 145    3:10   49.7    76    2.7   249      4.7  99999.0    0.00       0    62.0
 145    3:20   49.5    76    3.8   243      5.7  99999.0    0.00       0    61.9
 145    3:30   49.6    76    4.4   238      6.4  99999.0    0.00       0    61.9
 145    3:40   50.4    74    3.1   246      5.2  99999.0    0.00       0    61.8
 145    3:50   50.7    74    3.0   236      5.1  99999.0    0.00       0    61.7
 145    4:00   51.0    73    2.9   241      3.9  99999.0    0.00       0    61.7
 145    4:10   51.7    71    4.2   239      6.0  99999.0    0.00       0    61.6
 145    4:20   52.1    69    3.8   234      5.2  99999.0    0.00       0    61.5
 145    4:30   51.9    69    2.6   248      5.2  99999.0    0.00       1    61.5
 145    4:40   51.7    69    2.8   244      5.3  99999.0    0.00       4    61.4
 145    4:50   51.0    71    2.9   245      5.6  99999.0    0.00      12    61.3
 145    5:00   51.3    71    2.7   247      5.9  99999.0    0.00      31    61.3
 145    5:10   51.9    71    3.0   240      3.8  99999.0    0.00      39    61.2
 145    5:20   52.0    72    2.4   249      4.8  99999.0    0.00      41    61.2
 145    5:30   52.4    71    0.5   130      2.7  99999.0    0.00      51    61.1
 145    5:40   52.7    72    0.1   167      1.5  99999.0    0.00      59    61.0
 145    5:50   52.6    72    0.4   266      1.9  99999.0    0.00      57    61.0
 145    6:00   52.9    71    0.0     0      0.0  99999.0    0.00      61    60.9
 145    6:10   53.1    72    0.9   241      2.7  99999.0    0.00      54    60.9
 145    6:20   53.0    73    0.6   246      2.8  99999.0    0.00      47    60.8
 145    6:30   53.2    73    0.2   245      1.8  99999.0    0.00      87    60.7
 145    6:40   53.6    73    0.0   242      1.1  99999.0    0.00      87    60.7
 145    6:50   54.0    74    0.6   246      2.3  99999.0    0.00      87    60.7
 145    7:00   55.3    73    0.0   278      1.1  99999.0    0.00     217    60.6
 145    7:10   57.1    66    1.5     3      4.3  99999.0    0.00     317    60.6
 145    7:20   58.6    63    2.7    11      4.3  99999.0    0.00     465    60.5
 145    7:30   60.4    59    2.0    22      4.7  99999.0    0.00     522    60.5
 145    7:40   61.2    56    2.6    49      5.3  99999.0    0.00     479    60.5
 145    7:50   61.0    56    2.4    99      4.9  99999.0    0.00     589    60.4
 145    8:00   61.3    56    2.3    73      5.1  99999.0    0.00     388    60.4
 145    8:10   61.3    56    1.6    66      4.6  99999.0    0.00     364    60.4
 145    8:20   61.3    55    2.3    66      4.7  99999.0    0.00     520    60.4
 145    8:30   62.9    52    2.7    76      6.2  99999.0    0.00     630    60.4
 145    8:40   62.5    52    2.3    58      5.0  99999.0    0.00     360    60.4
 145    8:50   61.8    53    2.5    60      5.3  99999.0    0.00     324    60.5
 145    9:00   62.0    53    2.6    63      5.3  99999.0    0.00     313    60.5
 145    9:10   62.4    52    1.6    44      5.2  99999.0    0.00     338    60.5
 145    9:20   62.7    53    2.0    36      4.5  99999.0    0.00     364    60.6
 145    9:30   63.6    51    2.7    20      5.3  99999.0    0.00     717    60.7
 145    9:40   66.0    48    2.3    44      6.1  99999.0    0.00     825    60.8
 145    9:50   65.9    46    3.6     0      9.4  99999.0    0.00     987    60.8
 145   10:00   67.2    43    3.4    22      8.3  99999.0    0.00     887    60.9
 145   10:10   67.6    42    4.5    40      9.2  99999.0    0.00    1168    61.0
 145   10:20   68.2    40    4.2    44      8.8  99999.0    0.00    1196    61.1
 145   10:30   68.7    40    3.5    23      8.3  99999.0    0.00     917    61.2
 145   10:40   66.4    44    5.0   357      8.6  99999.0    0.00     295    61.3
 145   10:50   65.8    45    3.8   340      7.3  99999.0    0.00     317    61.4
 145   11:00   65.0    49    4.5   328      7.4  99999.0    0.00     273    61.6
 145   11:10   64.7    47    1.9   308      4.7  99999.0    0.00     185    61.8
 145   11:20   64.2    49    5.7   311     10.9  99999.0    0.00     129    61.9
 145   11:30   63.5    48    6.0   322      9.8  99999.0    0.00     121    62.1
 145   11:40   63.4    48    6.2   308     11.2  99999.0    0.00      84    62.2
 145   11:50   63.2    49    6.0   320      9.7  99999.0    0.00      73    62.4
 145   12:00   62.0    47    9.0   303     16.1  99999.0    0.00      93    62.5
 145   12:10   61.8    44    6.5   300     15.5  99999.0    0.00      97    62.6
 145   12:20   61.1    52    5.3   295     12.6  99999.0    0.00      98    62.6
 145   12:30   61.3    48    6.8   297     16.3  99999.0    0.00     120    62.7
 145   12:40   62.0    47    6.6   298     14.1  99999.0    0.00     198    62.7
 145   12:50   63.2    49    4.6   301     12.1  99999.0    0.00     503    62.8
 145   13:00   66.7    41    3.5   292     10.4  99999.0    0.00     469    62.8
 145   13:10   68.4    36    4.0   263     12.5  99999.0    0.00     763    62.8
 145   13:20   66.9    40    5.3   254     14.0  99999.0    0.00     323    62.8
 145   13:30   66.6    40    7.9   248     19.3  99999.0    0.00     656    62.8
 145   13:40   65.8    36   12.9   246     25.9  99999.0    0.00     738    62.9
 145   13:50   66.1    37    8.6   242     16.4  99999.0    0.00     600    62.9
 145   14:00   65.4    38    7.6   227     15.7  99999.0    0.00     327    62.9
 145   14:10   66.4    37    5.7   258     14.7  99999.0    0.00     300    63.0
 145   14:20   67.0    38    3.8   283     12.9  99999.0    0.00     322    63.0
 145   14:30   67.9    36    4.5   342      9.7  99999.0    0.00     246    63.0
 145   14:40   67.1    36    5.8     8     10.7  99999.0    0.00     194    63.1
 145   14:50   65.9    43    6.9     4     13.4  99999.0    0.00     227    63.1
 145   15:00   65.4    43    7.0    10     11.7  99999.0    0.00     216    63.2
 145   15:10   64.9    40    8.7    10     13.4  99999.0    0.00     205    63.2
 145   15:20   64.8    38    8.2    20     14.0  99999.0    0.00     230    63.2
 145   15:30   65.0    37    7.8    30     12.6  99999.0    0.00     323    63.2
 145   15:40   65.9    37    8.6    30     14.6  99999.0    0.00     437    63.3
 145   15:50   65.5    37    9.8    33     16.9  99999.0    0.00     370    63.3
 145   16:00   64.2    40   10.8    28     18.3  99999.0    0.00     232    63.3
 145   16:10   62.3    46   11.3    30     19.6  99999.0    0.00     166    63.3
 145   16:20   60.8    54   10.8    10     19.5  99999.0    0.00     165    63.3
 145   16:30   59.7    57    8.6     7     17.2  99999.0    0.00     117    63.3
 145   16:40   59.2    58    6.8     4     13.0  99999.0    0.00     103    63.3
 145   16:50   59.0    58    6.1    20     14.2  99999.0    0.00     130    63.4
 145   17:00   59.0    59    3.6   352      6.1  99999.0    0.00     112    63.4
 145   17:10   58.9    59    4.1   333      7.1  99999.0    0.00     121    63.3

Return to South Reno, Nevada graphs page.


Western Regional Climate Center,wrcc@dri.edu